Time;durP1;ratioP1;P1;durP2;ratioP2;P2;SDS_P1;SDS_P2;PMS_P1;PMS_P2;Temp;Humidity;BMP_temperature;BMP_pressure;BME280_temperature;BME280_humidity;BME280_pressure;Samples;Min_cycle;Max_cycle;Signal;HPM_P1;HPM_P2
2021/09/02 00:00:29;;;;;;;10.17;6.20;;;9.80;99.90;;;;;;5068647;28;20473;-76
2021/09/02 00:02:54;;;;;;;11.27;6.70;;;9.70;99.90;;;;;;5052122;28;20104;-76
2021/09/02 00:05:20;;;;;;;11.63;6.85;;;9.70;99.90;;;;;;5034909;28;20112;-76
2021/09/02 00:07:45;;;;;;;13.02;6.70;;;9.70;99.90;;;;;;5052726;28;20064;-76
2021/09/02 00:10:11;;;;;;;10.93;7.28;;;9.60;99.90;;;;;;5052915;28;20029;-76
2021/09/02 00:12:37;;;;;;;9.73;6.85;;;9.60;99.90;;;;;;5052705;28;20469;-76
2021/09/02 00:15:04;;;;;;;12.38;6.05;;;9.60;99.90;;;;;;5064883;28;20021;-76
2021/09/02 00:17:29;;;;;;;15.35;7.07;;;9.60;99.90;;;;;;5072596;28;20028;-76
2021/09/02 00:19:55;;;;;;;12.75;6.90;;;9.60;99.90;;;;;;5072472;28;20049;-76
2021/09/02 00:22:20;;;;;;;10.30;6.15;;;9.50;99.90;;;;;;5072835;28;20028;-76
2021/09/02 00:24:46;;;;;;;13.45;6.63;;;9.50;99.90;;;;;;5072685;28;20111;-76
2021/09/02 00:27:11;;;;;;;13.55;5.97;;;9.50;99.90;;;;;;5072523;28;20032;-76
2021/09/02 00:29:37;;;;;;;10.30;6.53;;;9.50;99.90;;;;;;5054486;28;20121;-76
2021/09/02 00:32:03;;;;;;;9.43;6.35;;;9.50;99.90;;;;;;5072670;28;20024;-76
2021/09/02 00:34:28;;;;;;;11.50;7.07;;;9.50;99.90;;;;;;5054245;28;20021;-76
2021/09/02 00:36:54;;;;;;;10.00;6.10;;;9.40;99.90;;;;;;5052661;28;20032;-76
2021/09/02 00:39:19;;;;;;;8.13;6.15;;;9.40;99.90;;;;;;5053462;28;20033;-76
2021/09/02 00:41:45;;;;;;;11.73;7.10;;;9.40;99.90;;;;;;5056627;28;20029;-76
2021/09/02 00:44:10;;;;;;;8.63;6.40;;;9.40;99.90;;;;;;5056276;28;20111;-76
2021/09/02 00:46:36;;;;;;;9.73;6.60;;;9.40;99.90;;;;;;5056302;28;20063;-76
2021/09/02 00:49:01;;;;;;;10.85;6.57;;;9.30;99.90;;;;;;5068283;28;20444;-76
2021/09/02 00:51:27;;;;;;;7.07;5.30;;;9.30;99.90;;;;;;5076515;28;20477;-76
2021/09/02 00:53:55;;;;;;;8.43;6.15;;;9.30;99.90;;;;;;5058230;28;20402;-76
2021/09/02 00:56:22;;;;;;;7.88;6.30;;;9.30;99.90;;;;;;5076102;28;20036;-76
2021/09/02 00:58:48;;;;;;;8.95;5.85;;;9.20;99.90;;;;;;5076475;28;20082;-75
2021/09/02 01:01:16;;;;;;;11.32;5.93;;;9.20;99.90;;;;;;5065612;28;20025;-75
2021/09/02 01:03:43;;;;;;;10.38;6.50;;;9.20;99.90;;;;;;5056514;28;20071;-75
2021/09/02 01:06:09;;;;;;;11.38;6.43;;;9.10;99.90;;;;;;5056128;28;20035;-75
2021/09/02 01:08:35;;;;;;;10.13;6.30;;;9.10;99.90;;;;;;5056105;28;20029;-75
2021/09/02 01:11:00;;;;;;;8.13;6.28;;;9.10;99.90;;;;;;5056136;28;20033;-75
2021/09/02 01:13:26;;;;;;;8.60;6.47;;;9.10;99.90;;;;;;5037952;28;20186;-75
2021/09/02 01:15:56;;;;;;;8.23;6.13;;;9.00;99.90;;;;;;5056025;28;20025;-75
2021/09/02 01:18:21;;;;;;;10.43;6.30;;;9.00;99.90;;;;;;5056085;28;20025;-75
2021/09/02 01:20:47;;;;;;;11.23;6.85;;;9.00;99.90;;;;;;5055672;28;20410;-76
2021/09/02 01:23:18;;;;;;;13.37;6.60;;;8.90;99.90;;;;;;5055934;28;20126;-75
2021/09/02 01:25:45;;;;;;;9.87;6.53;;;8.90;99.90;;;;;;5055546;28;20032;-75
2021/09/02 01:28:12;;;;;;;8.83;6.43;;;8.90;99.90;;;;;;5055564;28;20029;-75
2021/09/02 01:30:39;;;;;;;11.00;7.82;;;8.90;99.90;;;;;;5055494;28;20025;-75
2021/09/02 01:33:10;;;;;;;10.88;7.70;;;8.90;99.90;;;;;;5056021;28;20100;-76
2021/09/02 01:35:36;;;;;;;10.83;7.83;;;8.90;99.90;;;;;;5055825;28;20039;-75
2021/09/02 01:38:04;;;;;;;11.98;8.48;;;8.80;99.90;;;;;;5055652;28;20104;-76
2021/09/02 01:40:42;;;;;;;13.43;8.47;;;8.80;99.90;;;;;;5055577;28;20066;-75
2021/09/02 01:43:11;;;;;;;11.80;7.53;;;8.80;99.90;;;;;;5055407;28;20032;-75
2021/09/02 01:45:37;;;;;;;9.97;7.27;;;8.80;99.90;;;;;;5055441;28;20083;-76
2021/09/02 01:48:04;;;;;;;11.15;7.28;;;8.70;99.90;;;;;;5055256;28;20029;-75
2021/09/02 01:50:32;;;;;;;12.20;7.50;;;8.70;99.90;;;;;;5054603;28;20051;-75
2021/09/02 01:52:59;;;;;;;10.63;7.13;;;8.70;99.90;;;;;;5053394;28;20475;-75
2021/09/02 01:55:26;;;;;;;13.00;7.82;;;8.70;99.90;;;;;;5035295;28;20034;-76
2021/09/02 01:57:53;;;;;;;11.97;7.27;;;8.70;99.90;;;;;;5034925;28;20045;-76
2021/09/02 02:00:19;;;;;;;11.67;6.93;;;8.60;99.90;;;;;;5035281;28;20474;-76
2021/09/02 02:02:45;;;;;;;10.43;7.10;;;8.60;99.90;;;;;;5035171;28;20076;-75
2021/09/02 02:05:12;;;;;;;11.87;7.47;;;8.60;99.90;;;;;;5035109;28;20401;-75
2021/09/02 02:07:39;;;;;;;10.63;7.00;;;8.50;99.90;;;;;;5035211;28;20026;-75
2021/09/02 02:10:08;;;;;;;10.52;6.55;;;8.50;99.90;;;;;;5035155;28;20028;-75
2021/09/02 02:12:33;;;;;;;11.37;7.00;;;8.50;99.90;;;;;;5034835;28;20025;-76
2021/09/02 02:14:59;;;;;;;11.05;6.68;;;8.50;99.90;;;;;;5034863;28;20193;-76
2021/09/02 02:17:24;;;;;;;8.73;6.77;;;8.50;99.90;;;;;;5035217;28;20032;-76
2021/09/02 02:19:50;;;;;;;12.83;7.50;;;8.50;99.90;;;;;;5034621;28;20049;-76
2021/09/02 02:22:16;;;;;;;9.37;7.03;;;8.40;99.90;;;;;;5036581;28;20162;-76
2021/09/02 02:24:41;;;;;;;12.87;7.50;;;8.40;99.90;;;;;;5054715;28;20028;-76
2021/09/02 02:27:07;;;;;;;12.93;6.77;;;8.40;99.90;;;;;;5046712;28;20018;-76
2021/09/02 02:29:32;;;;;;;9.20;6.83;;;8.50;99.90;;;;;;5034461;28;20021;-76
2021/09/02 02:31:58;;;;;;;8.57;6.80;;;8.40;99.90;;;;;;5034700;28;20100;-76
2021/09/02 02:34:24;;;;;;;9.77;6.93;;;8.40;99.90;;;;;;5034761;28;20033;-76
2021/09/02 02:36:49;;;;;;;10.85;6.32;;;8.40;99.90;;;;;;5034294;28;20037;-75
2021/09/02 02:39:15;;;;;;;11.10;6.57;;;8.40;99.90;;;;;;5034327;28;20045;-75
2021/09/02 02:41:41;;;;;;;10.93;6.47;;;8.30;99.90;;;;;;5034076;28;20025;-76
2021/09/02 02:44:07;;;;;;;8.17;5.67;;;8.30;99.90;;;;;;5034321;28;20036;-76
2021/09/02 02:46:33;;;;;;;10.00;5.70;;;8.30;99.90;;;;;;5034327;28;20389;-75
2021/09/02 02:48:58;;;;;;;9.10;5.40;;;8.30;99.90;;;;;;5034546;28;20075;-76
2021/09/02 02:51:24;;;;;;;9.03;6.10;;;8.20;99.90;;;;;;5034253;28;20036;-76
2021/09/02 02:53:49;;;;;;;15.47;5.97;;;8.20;99.90;;;;;;5033937;28;20029;-76
2021/09/02 02:56:15;;;;;;;10.00;6.13;;;8.20;99.90;;;;;;5034456;28;20413;-75
2021/09/02 02:58:41;;;;;;;10.60;6.50;;;8.10;99.90;;;;;;5033836;28;20037;-76
2021/09/02 03:01:07;;;;;;;10.33;6.27;;;8.10;99.90;;;;;;5049672;28;20064;-76
2021/09/02 03:03:32;;;;;;;8.97;6.53;;;8.10;99.90;;;;;;5053316;28;20064;-76
2021/09/02 03:05:58;;;;;;;11.97;6.50;;;8.00;99.90;;;;;;5053850;28;20029;-75
2021/09/02 03:08:23;;;;;;;9.07;6.27;;;8.10;99.90;;;;;;5054063;28;20024;-75
2021/09/02 03:10:49;;;;;;;9.07;6.77;;;8.00;99.90;;;;;;5053895;28;20047;-76
2021/09/02 03:13:14;;;;;;;10.70;7.33;;;8.00;99.90;;;;;;5053457;28;20031;-76
2021/09/02 03:15:41;;;;;;;13.43;7.53;;;8.00;99.90;;;;;;5053496;28;20450;-76
2021/09/02 03:18:06;;;;;;;12.03;7.97;;;8.00;99.90;;;;;;5053426;28;20024;-76
2021/09/02 03:20:32;;;;;;;10.40;6.97;;;8.00;99.90;;;;;;5035310;28;20448;-75
2021/09/02 03:22:58;;;;;;;14.83;8.20;;;8.00;99.90;;;;;;5053291;28;20025;-76
2021/09/02 03:25:23;;;;;;;12.23;8.30;;;8.00;99.90;;;;;;5053802;28;20025;-76
2021/09/02 03:27:49;;;;;;;9.30;6.93;;;7.90;99.90;;;;;;5053258;28;20497;-76
2021/09/02 03:30:15;;;;;;;12.07;7.33;;;7.90;99.90;;;;;;5053509;28;20024;-76
2021/09/02 03:32:40;;;;;;;10.47;7.00;;;7.90;99.90;;;;;;5053480;28;20025;-76
2021/09/02 03:35:07;;;;;;;10.83;7.30;;;7.90;99.90;;;;;;5053760;28;20029;-76
2021/09/02 03:37:33;;;;;;;8.10;6.50;;;7.90;99.90;;;;;;5052974;28;20029;-76
2021/09/02 03:39:59;;;;;;;13.07;7.90;;;7.90;99.90;;;;;;5053343;28;20470;-76
2021/09/02 03:42:24;;;;;;;10.40;7.00;;;7.80;99.90;;;;;;5053076;28;20075;-76
2021/09/02 03:44:50;;;;;;;10.57;6.83;;;7.80;99.90;;;;;;5053500;28;20449;-76
2021/09/02 03:47:15;;;;;;;15.00;8.40;;;7.80;99.90;;;;;;5052942;28;20025;-76
2021/09/02 03:49:41;;;;;;;11.07;7.50;;;7.70;99.90;;;;;;5053074;28;20046;-76
2021/09/02 03:52:07;;;;;;;10.77;7.43;;;7.70;99.90;;;;;;5035223;28;20377;-76
2021/09/02 03:54:33;;;;;;;12.33;7.27;;;7.70;99.90;;;;;;5053121;28;20098;-76
2021/09/02 03:56:58;;;;;;;9.63;7.00;;;7.60;99.90;;;;;;5053178;28;20470;-76
2021/09/02 03:59:24;;;;;;;9.50;6.80;;;7.60;99.90;;;;;;5035306;28;20029;-76
2021/09/02 04:01:49;;;;;;;9.30;6.70;;;7.60;99.90;;;;;;5053085;28;20082;-76
2021/09/02 04:04:15;;;;;;;12.50;6.30;;;7.60;99.90;;;;;;5052987;28;20064;-76
2021/09/02 04:06:40;;;;;;;11.03;6.70;;;7.60;99.90;;;;;;5052750;28;20033;-76
2021/09/02 04:09:06;;;;;;;12.17;6.17;;;7.60;99.90;;;;;;5062960;28;20103;-77
2021/09/02 04:11:32;;;;;;;8.77;6.00;;;7.50;99.90;;;;;;5054689;28;20469;-77
2021/09/02 04:13:57;;;;;;;12.97;6.80;;;7.50;99.90;;;;;;5073021;28;20028;-77
2021/09/02 04:16:23;;;;;;;10.23;6.37;;;7.50;99.90;;;;;;5054901;28;20039;-77
2021/09/02 04:18:48;;;;;;;9.23;6.33;;;7.50;99.90;;;;;;5052816;28;20386;-76
2021/09/02 04:21:14;;;;;;;21.33;7.53;;;7.50;99.90;;;;;;5046805;28;20076;-77
2021/09/02 04:23:40;;;;;;;7.93;5.93;;;7.50;99.90;;;;;;5044631;28;20500;-77
2021/09/02 04:26:06;;;;;;;12.63;7.47;;;7.50;99.90;;;;;;5045124;28;20021;-77
2021/09/02 04:28:31;;;;;;;15.40;7.83;;;7.50;99.90;;;;;;5049266;28;20048;-77
2021/09/02 04:30:57;;;;;;;15.20;8.57;;;7.50;99.90;;;;;;5048199;28;20032;-77
2021/09/02 04:33:22;;;;;;;12.43;8.73;;;7.50;99.90;;;;;;5048862;28;20036;-76
2021/09/02 04:35:48;;;;;;;13.73;8.63;;;7.50;99.90;;;;;;5046676;28;20029;-76
2021/09/02 04:38:20;;;;;;;12.17;8.60;;;7.40;99.90;;;;;;5049205;28;20025;-77
2021/09/02 04:40:47;;;;;;;11.97;8.57;;;7.40;99.90;;;;;;5022957;28;20029;-76
2021/09/02 04:43:13;;;;;;;12.30;8.80;;;7.40;99.90;;;;;;5028618;28;20084;-77
2021/09/02 04:45:39;;;;;;;14.27;9.60;;;7.40;99.90;;;;;;5042206;28;20496;-76
2021/09/02 04:48:17;;;;;;;14.07;9.20;;;7.40;99.90;;;;;;5048415;28;20083;-77
2021/09/02 04:50:44;;;;;;;20.47;15.03;;;7.40;99.90;;;;;;5046382;28;20025;-76
2021/09/02 04:53:10;;;;;;;18.40;12.60;;;7.40;99.90;;;;;;5045339;28;20119;-76
2021/09/02 04:55:36;;;;;;;16.47;10.83;;;7.40;99.90;;;;;;5052783;28;20454;-76
2021/09/02 04:58:04;;;;;;;13.03;8.67;;;7.40;99.90;;;;;;5047034;28;20040;-76
2021/09/02 05:00:30;;;;;;;12.33;8.93;;;7.40;99.90;;;;;;5032142;28;20032;-76
2021/09/02 05:02:55;;;;;;;13.30;7.57;;;7.40;99.90;;;;;;5046482;28;20667;-76
2021/09/02 05:05:21;;;;;;;10.37;7.53;;;7.40;99.90;;;;;;5032336;28;20025;-77
2021/09/02 05:07:47;;;;;;;11.13;6.97;;;7.40;99.90;;;;;;5053942;28;20048;-76
2021/09/02 05:10:13;;;;;;;13.20;7.23;;;7.40;99.90;;;;;;5066434;28;20056;-77
2021/09/02 05:12:38;;;;;;;13.60;8.10;;;7.40;99.90;;;;;;5056682;28;20025;-76
2021/09/02 05:15:04;;;;;;;19.47;9.03;;;7.50;99.90;;;;;;5052471;28;20172;-76
2021/09/02 05:17:30;;;;;;;11.77;8.07;;;7.50;99.90;;;;;;5034828;28;20044;-76
2021/09/02 05:19:55;;;;;;;12.03;7.67;;;7.60;99.90;;;;;;5065788;28;20040;-76
2021/09/02 05:22:21;;;;;;;11.80;7.83;;;7.60;99.90;;;;;;5075845;28;20108;-76
2021/09/02 05:24:46;;;;;;;11.20;7.97;;;7.70;99.90;;;;;;5049026;28;20473;-76
2021/09/02 05:27:12;;;;;;;12.33;6.90;;;7.70;99.90;;;;;;5078269;28;20021;-77
2021/09/02 05:29:38;;;;;;;9.90;7.00;;;7.80;99.90;;;;;;5072887;28;20027;-77
2021/09/02 05:32:03;;;;;;;8.63;6.60;;;7.90;99.90;;;;;;5073640;28;20079;-77
2021/09/02 05:34:29;;;;;;;10.90;7.40;;;8.00;99.90;;;;;;5071684;28;20033;-77
2021/09/02 05:36:55;;;;;;;9.23;7.27;;;8.10;99.90;;;;;;5072092;28;20029;-77
2021/09/02 05:39:20;;;;;;;10.40;7.43;;;8.10;99.90;;;;;;5058153;28;20046;-76
2021/09/02 05:41:48;;;;;;;11.80;7.03;;;8.20;99.90;;;;;;5069498;28;20029;-77
2021/09/02 05:44:14;;;;;;;11.20;6.37;;;8.40;99.90;;;;;;5075013;28;20029;-77
2021/09/02 05:46:40;;;;;;;9.77;6.37;;;8.50;99.90;;;;;;5075493;28;20454;-76
2021/09/02 05:49:06;;;;;;;10.90;7.33;;;8.60;99.90;;;;;;5057394;28;20040;-77
2021/09/02 05:51:31;;;;;;;11.80;6.17;;;8.70;99.90;;;;;;5074986;28;20369;-76
2021/09/02 05:53:57;;;;;;;11.70;6.77;;;8.80;99.90;;;;;;5072589;28;20028;-75
2021/09/02 05:56:22;;;;;;;10.03;6.93;;;9.00;99.90;;;;;;5073191;28;20093;-75
2021/09/02 05:58:48;;;;;;;10.57;7.37;;;9.10;99.90;;;;;;5074165;28;20403;-77
2021/09/02 06:01:17;;;;;;;14.53;7.00;;;9.20;99.90;;;;;;5059782;28;20533;-75
2021/09/02 06:03:43;;;;;;;9.07;7.35;;;9.40;99.90;;;;;;5074923;28;20040;-76
2021/09/02 06:06:09;;;;;;;9.00;6.38;;;9.70;99.90;;;;;;5061514;28;20469;-77
2021/09/02 06:08:35;;;;;;;14.38;7.00;;;9.90;99.90;;;;;;5064357;28;20032;-75
2021/09/02 06:11:02;;;;;;;12.15;7.40;;;10.20;99.90;;;;;;5087810;28;20417;-76
2021/09/02 06:13:29;;;;;;;10.95;7.07;;;10.40;99.90;;;;;;5044042;28;20059;-76
2021/09/02 06:15:55;;;;;;;14.00;8.55;;;10.50;99.90;;;;;;5063616;28;20028;-76
2021/09/02 06:18:21;;;;;;;12.00;7.72;;;10.70;99.90;;;;;;5062850;28;20416;-76
2021/09/02 06:20:47;;;;;;;16.35;8.98;;;10.80;99.90;;;;;;5042976;28;20124;-77
2021/09/02 06:23:12;;;;;;;14.25;9.27;;;11.00;99.90;;;;;;5035192;28;20036;-76
2021/09/02 06:25:38;;;;;;;9.70;8.07;;;11.10;99.90;;;;;;5052088;28;20468;-76
2021/09/02 06:28:04;;;;;;;15.15;9.25;;;11.20;99.90;;;;;;5033305;28;20033;-76
2021/09/02 06:30:30;;;;;;;13.48;9.55;;;11.30;99.90;;;;;;5056730;28;20025;-77
2021/09/02 06:32:56;;;;;;;21.77;11.10;;;11.40;99.90;;;;;;5052857;28;20488;-76
2021/09/02 06:35:22;;;;;;;19.23;10.45;;;11.40;99.90;;;;;;5053741;28;20017;-77
2021/09/02 06:37:47;;;;;;;15.45;10.30;;;11.60;99.90;;;;;;5052946;28;20025;-77
2021/09/02 06:40:13;;;;;;;17.40;10.73;;;11.60;99.90;;;;;;5068094;28;20040;-77
2021/09/02 06:42:39;;;;;;;18.00;10.85;;;11.70;99.90;;;;;;5067727;28;20017;-75
2021/09/02 06:45:06;;;;;;;13.18;9.45;;;11.80;99.90;;;;;;5054084;28;20045;-75
2021/09/02 06:47:31;;;;;;;14.02;9.80;;;11.90;99.90;;;;;;5054056;28;20052;-75
2021/09/02 06:49:57;;;;;;;13.63;9.70;;;12.00;99.90;;;;;;5053941;28;20477;-76
2021/09/02 06:52:23;;;;;;;16.55;10.35;;;12.00;99.90;;;;;;5051813;28;20029;-76
2021/09/02 06:54:48;;;;;;;19.88;11.25;;;12.10;99.90;;;;;;5052482;28;20397;-76
2021/09/02 06:57:14;;;;;;;15.43;10.80;;;12.20;99.90;;;;;;5052571;28;20052;-76
2021/09/02 06:59:39;;;;;;;20.15;10.73;;;12.30;99.90;;;;;;5051575;28;20127;-76
2021/09/02 07:02:05;;;;;;;20.20;11.30;;;12.30;99.90;;;;;;5052136;28;20134;-76
2021/09/02 07:04:31;;;;;;;15.63;10.18;;;12.40;99.90;;;;;;5052682;28;20025;-77
2021/09/02 07:06:57;;;;;;;17.77;11.23;;;12.50;99.90;;;;;;5051290;28;20040;-77
2021/09/02 07:09:22;;;;;;;15.45;10.55;;;12.60;99.90;;;;;;5050398;28;20383;-77
2021/09/02 07:11:48;;;;;;;16.50;10.00;;;12.70;99.90;;;;;;5050539;28;20029;-77
2021/09/02 07:14:14;;;;;;;14.70;9.57;;;12.80;99.90;;;;;;5049670;28;20029;-77
2021/09/02 07:16:39;;;;;;;13.65;9.45;;;12.90;99.90;;;;;;5050823;28;20104;-77
2021/09/02 07:19:05;;;;;;;13.48;9.52;;;13.10;99.90;;;;;;5049659;28;20382;-77
2021/09/02 07:21:30;;;;;;;14.07;9.13;;;13.20;99.90;;;;;;5058363;28;20104;-77
2021/09/02 07:23:56;;;;;;;14.90;9.13;;;13.30;99.90;;;;;;5059356;28;20468;-77
2021/09/02 07:26:22;;;;;;;13.38;9.13;;;13.50;99.90;;;;;;5053535;28;20029;-76
2021/09/02 07:28:47;;;;;;;15.82;8.25;;;13.60;99.90;;;;;;5057795;28;20024;-77
2021/09/02 07:31:13;;;;;;;13.13;7.03;;;13.80;99.90;;;;;;5053847;28;20440;-77
2021/09/02 07:33:38;;;;;;;10.65;7.20;;;13.90;99.90;;;;;;5048676;28;20091;-77
2021/09/02 07:36:04;;;;;;;12.13;7.30;;;14.10;99.90;;;;;;5068767;28;20032;-77
2021/09/02 07:38:30;;;;;;;8.98;5.78;;;14.20;99.90;;;;;;5056240;28;20138;-77
2021/09/02 07:40:56;;;;;;;11.60;6.53;;;14.30;99.90;;;;;;5032952;28;20116;-77
2021/09/02 07:43:21;;;;;;;9.77;6.55;;;14.50;99.90;;;;;;5037909;28;20033;-77
2021/09/02 07:45:47;;;;;;;10.35;6.20;;;14.70;99.90;;;;;;5049688;28;20036;-77
2021/09/02 07:48:12;;;;;;;11.13;6.38;;;14.80;99.90;;;;;;5047781;28;20374;-77
2021/09/02 07:50:38;;;;;;;10.07;5.80;;;14.80;99.90;;;;;;5049307;28;20032;-77
2021/09/02 07:53:03;;;;;;;10.38;5.85;;;14.90;99.90;;;;;;5049586;28;20052;-77
2021/09/02 07:55:29;;;;;;;9.43;5.50;;;15.00;99.90;;;;;;5052416;28;20033;-77
2021/09/02 07:57:55;;;;;;;12.80;5.75;;;15.10;99.90;;;;;;5041860;28;20064;-77
2021/09/02 08:00:20;;;;;;;8.40;5.28;;;15.30;99.90;;;;;;5041580;28;20037;-77
2021/09/02 08:02:46;;;;;;;8.60;5.68;;;15.30;99.90;;;;;;5064763;28;20025;-77
2021/09/02 08:05:13;;;;;;;9.25;5.18;;;15.40;99.90;;;;;;5060723;28;20073;-76
2021/09/02 08:07:47;;;;;;;9.80;5.40;;;15.50;99.90;;;;;;5059709;28;20775;-76
2021/09/02 08:10:13;;;;;;;10.40;5.55;;;15.50;99.90;;;;;;5066912;28;20028;-76
2021/09/02 08:12:42;;;;;;;8.80;5.78;;;15.60;99.90;;;;;;5056643;28;20370;-75
2021/09/02 08:15:11;;;;;;;8.20;5.25;;;15.60;99.90;;;;;;5052864;28;20025;-75
2021/09/02 08:17:41;;;;;;;7.97;5.20;;;15.70;99.90;;;;;;5051441;28;20108;-76
2021/09/02 08:20:09;;;;;;;8.07;5.00;;;15.70;99.90;;;;;;5036223;28;20096;-75
2021/09/02 08:22:35;;;;;;;7.63;5.10;;;15.80;99.90;;;;;;5066151;28;20040;-75
2021/09/02 08:25:01;;;;;;;13.38;5.57;;;15.90;99.90;;;;;;5057563;28;20484;-75
2021/09/02 08:27:26;;;;;;;8.40;5.25;;;16.10;99.90;;;;;;5054352;28;20028;-76
2021/09/02 08:29:52;;;;;;;7.80;5.00;;;16.10;99.90;;;;;;5066384;28;20472;-76
2021/09/02 08:32:18;;;;;;;7.75;4.90;;;16.20;99.90;;;;;;5068500;28;20031;-76
2021/09/02 08:34:43;;;;;;;7.10;5.22;;;16.30;99.90;;;;;;5064555;28;20103;-76
2021/09/02 08:37:09;;;;;;;8.82;5.50;;;16.30;99.90;;;;;;5068677;28;20492;-76
2021/09/02 08:39:35;;;;;;;8.85;4.95;;;16.40;99.90;;;;;;5053856;28;20041;-74
2021/09/02 08:42:00;;;;;;;6.25;4.70;;;16.40;99.90;;;;;;5071334;28;20086;-74
2021/09/02 08:44:26;;;;;;;7.82;5.30;;;16.50;99.90;;;;;;5039664;28;20037;-75
2021/09/02 08:46:52;;;;;;;6.63;4.68;;;16.60;99.90;;;;;;5058065;28;20036;-76
2021/09/02 08:49:24;;;;;;;10.55;5.28;;;16.70;99.90;;;;;;5066056;28;20062;-75
2021/09/02 08:51:51;;;;;;;8.10;5.00;;;16.80;99.90;;;;;;5065978;28;20040;-75
2021/09/02 08:54:18;;;;;;;7.43;5.32;;;16.90;99.90;;;;;;5043731;28;20040;-75
2021/09/02 08:56:44;;;;;;;11.40;5.30;;;16.90;99.90;;;;;;5066214;28;20028;-75
2021/09/02 08:59:09;;;;;;;6.57;4.63;;;17.00;99.90;;;;;;5065893;28;20484;-75
2021/09/02 09:01:35;;;;;;;6.47;4.60;;;17.00;99.90;;;;;;5068688;28;20506;-75
2021/09/02 09:04:12;;;;;;;7.35;4.90;;;17.10;99.90;;;;;;5074686;28;20591;-76
2021/09/02 09:06:39;;;;;;;7.78;4.82;;;17.30;99.90;;;;;;5056217;28;20029;-76
2021/09/02 09:09:16;;;;;;;5.93;4.60;;;17.40;99.90;;;;;;5069541;28;20032;-76
2021/09/02 09:11:47;;;;;;;8.32;4.78;;;17.50;99.90;;;;;;5057878;28;20052;-76
2021/09/02 09:14:17;;;;;;;6.97;4.82;;;17.70;99.90;;;;;;5069491;28;20472;-77
2021/09/02 09:16:52;;;;;;;7.82;4.38;;;17.80;99.90;;;;;;5072941;28;20122;-76
2021/09/02 09:19:43;;;;;;;7.97;4.82;;;17.90;99.90;;;;;;5067631;28;20036;-75
2021/09/02 09:22:13;;;;;;;9.55;5.03;;;18.00;99.90;;;;;;5041964;28;20037;-75
2021/09/02 09:24:49;;;;;;;6.72;4.68;;;18.20;99.90;;;;;;5058033;28;20227;-75
2021/09/02 09:27:31;;;;;;;7.93;5.25;;;18.20;99.90;;;;;;5046711;28;20021;-76
2021/09/02 09:30:37;;;;;;;7.47;4.63;;;18.30;99.90;;;;;;5057759;28;20435;-74
2021/09/02 09:33:05;;;;;;;6.55;4.55;;;18.50;99.90;;;;;;5040768;28;20522;-76
2021/09/02 09:35:36;;;;;;;9.50;5.25;;;18.80;99.90;;;;;;5049637;28;20033;-76
2021/09/02 09:38:13;;;;;;;7.18;4.55;;;19.00;99.90;;;;;;5058550;28;20091;-76
2021/09/02 09:40:43;;;;;;;7.32;5.30;;;19.00;99.90;;;;;;5056579;28;20021;-75
2021/09/02 09:43:22;;;;;;;6.95;4.47;;;19.10;99.90;;;;;;5035232;28;20390;-76
2021/09/02 09:45:55;;;;;;;8.02;5.25;;;19.20;99.90;;;;;;5055260;28;20044;-76
2021/09/02 09:48:29;;;;;;;9.52;4.90;;;19.40;99.90;;;;;;5044096;28;20018;-76
2021/09/02 09:51:13;;;;;;;7.43;5.10;;;19.70;99.90;;;;;;5038019;28;20032;-76
2021/09/02 09:53:49;;;;;;;6.80;4.82;;;19.90;99.90;;;;;;5041755;28;20101;-74
2021/09/02 09:56:19;;;;;;;8.38;4.78;;;19.90;99.90;;;;;;5040124;28;20112;-76
2021/09/02 09:58:46;;;;;;;8.57;4.60;;;20.10;99.90;;;;;;5055936;28;20306;-75
2021/09/02 10:01:13;;;;;;;7.35;4.90;;;20.30;99.90;;;;;;5044891;28;20401;-75
2021/09/02 10:03:39;;;;;;;8.80;5.25;;;20.50;99.90;;;;;;5047910;28;20036;-75
2021/09/02 10:06:10;;;;;;;7.43;4.50;;;20.80;99.90;;;;;;5050868;28;20025;-75
2021/09/02 10:08:38;;;;;;;6.45;4.30;;;21.00;99.90;;;;;;5054864;28;20389;-75
2021/09/02 10:11:07;;;;;;;5.50;4.22;;;21.10;99.90;;;;;;5054578;28;20078;-74
2021/09/02 10:13:33;;;;;;;7.13;4.53;;;21.10;99.90;;;;;;5054982;28;20036;-74
2021/09/02 10:15:59;;;;;;;6.45;4.78;;;21.10;99.90;;;;;;5054606;28;20021;-74
2021/09/02 10:18:27;;;;;;;9.27;4.43;;;21.10;99.90;;;;;;5054363;28;20025;-74
2021/09/02 10:20:54;;;;;;;7.78;4.35;;;21.30;99.90;;;;;;5060128;28;20052;-74
2021/09/02 10:23:24;;;;;;;5.30;3.70;;;21.50;99.90;;;;;;5054408;28;20369;-74
2021/09/02 10:25:50;;;;;;;5.53;4.03;;;21.50;99.90;;;;;;5055386;28;20055;-74
2021/09/02 10:28:23;;;;;;;6.97;5.25;;;21.40;99.90;;;;;;5054847;28;20025;-74
2021/09/02 10:30:54;;;;;;;6.88;4.50;;;21.30;99.90;;;;;;5054999;28;20029;-74
2021/09/02 10:33:40;;;;;;;6.22;4.35;;;21.30;99.90;;;;;;5036594;28;20378;-74
2021/09/02 10:36:11;;;;;;;4.95;3.88;;;21.50;99.90;;;;;;5054999;28;20040;-75
2021/09/02 10:38:45;;;;;;;6.30;4.80;;;21.50;99.90;;;;;;5047926;28;20021;-77
2021/09/02 10:41:12;;;;;;;7.47;4.50;;;21.60;99.90;;;;;;5052024;28;20024;-76
2021/09/02 10:43:55;;;;;;;7.25;4.35;;;21.80;99.90;;;;;;5057090;28;20055;-76
2021/09/02 10:46:51;;;;;;;5.03;4.03;;;21.90;99.90;;;;;;5035531;28;20028;-74
2021/09/02 10:49:22;;;;;;;8.27;5.25;;;22.20;99.90;;;;;;5054620;28;20030;-76
2021/09/02 10:52:31;;;;;;;6.60;4.40;;;22.10;99.90;;;;;;5054466;28;20021;-77
2021/09/02 10:55:33;;;;;;;8.20;4.45;;;22.20;99.90;;;;;;5034602;28;20022;-75
2021/09/02 10:58:07;;;;;;;5.95;4.20;;;22.20;99.90;;;;;;5052627;28;20032;-75
2021/09/02 11:00:38;;;;;;;7.68;4.95;;;22.20;99.90;;;;;;5054536;28;20112;-75
2021/09/02 11:03:14;;;;;;;5.63;4.10;;;22.40;99.90;;;;;;5038235;28;20036;-75
2021/09/02 11:05:46;;;;;;;5.32;4.38;;;22.40;99.90;;;;;;5055162;28;20493;-76
2021/09/02 11:08:12;;;;;;;5.65;4.13;;;22.40;99.90;;;;;;5050484;28;20104;-76
2021/09/02 11:10:38;;;;;;;5.68;3.92;;;22.60;99.90;;;;;;5048017;28;20124;-76
2021/09/02 11:13:07;;;;;;;8.32;4.45;;;22.50;99.90;;;;;;5048620;28;20076;-76
2021/09/02 11:15:35;;;;;;;5.60;4.22;;;22.70;99.90;;;;;;5047496;28;20719;-76
2021/09/02 11:18:05;;;;;;;6.47;4.47;;;22.80;99.90;;;;;;5047009;28;20081;-76
2021/09/02 11:20:35;;;;;;;6.93;4.20;;;22.70;99.90;;;;;;5047036;28;20055;-76
2021/09/02 11:23:18;;;;;;;9.15;4.20;;;22.70;99.90;;;;;;5036535;28;20033;-76
2021/09/02 11:25:49;;;;;;;5.55;4.03;;;22.70;99.90;;;;;;5045074;28;20477;-77
2021/09/02 11:28:18;;;;;;;6.15;4.03;;;22.80;99.90;;;;;;5042162;28;20493;-75
2021/09/02 11:30:44;;;;;;;4.82;4.05;;;22.70;99.90;;;;;;5043962;28;20104;-76
2021/09/02 11:33:09;;;;;;;5.88;3.92;;;22.70;99.90;;;;;;5035976;28;20108;-76
2021/09/02 11:35:36;;;;;;;6.07;4.03;;;22.60;99.90;;;;;;5037453;28;20071;-78
2021/09/02 11:38:03;;;;;;;6.68;3.35;;;22.70;99.90;;;;;;5052354;28;20031;-77
2021/09/02 11:40:30;;;;;;;5.57;3.88;;;22.70;99.90;;;;;;5051854;28;20021;-77
2021/09/02 11:42:57;;;;;;;7.90;4.22;;;22.60;99.90;;;;;;5053455;28;20354;-76
2021/09/02 11:45:25;;;;;;;6.38;4.25;;;22.60;99.90;;;;;;5050126;28;20075;-76
2021/09/02 11:47:52;;;;;;;8.32;3.95;;;22.80;99.90;;;;;;5050631;28;20029;-77
2021/09/02 11:50:22;;;;;;;4.72;3.95;;;22.70;99.90;;;;;;5050466;28;20028;-77
2021/09/02 11:52:50;;;;;;;7.22;3.78;;;22.90;99.90;;;;;;5049456;28;20021;-77
2021/09/02 11:55:27;;;;;;;7.05;4.43;;;22.90;99.90;;;;;;5052851;28;20024;-77
2021/09/02 11:58:04;;;;;;;6.97;4.22;;;22.90;99.90;;;;;;5054568;28;20036;-78
2021/09/02 12:00:32;;;;;;;6.82;4.20;;;22.90;99.90;;;;;;5053544;28;20025;-78
2021/09/02 12:03:00;;;;;;;6.38;4.45;;;22.90;99.90;;;;;;5056648;28;20049;-78
2021/09/02 12:05:36;;;;;;;5.90;4.05;;;23.00;99.90;;;;;;5048060;28;20025;-77
2021/09/02 12:08:05;;;;;;;7.40;5.30;;;22.80;99.90;;;;;;5053561;28;20025;-77
2021/09/02 12:10:31;;;;;;;7.20;5.25;;;22.60;99.90;;;;;;5053400;28;20021;-76
2021/09/02 12:12:58;;;;;;;6.97;4.18;;;22.60;99.90;;;;;;5053144;28;20021;-76
2021/09/02 12:15:28;;;;;;;6.10;3.80;;;22.90;99.90;;;;;;5055593;28;20028;-76
2021/09/02 12:18:08;;;;;;;9.13;3.83;;;22.70;99.90;;;;;;5051151;28;20892;-77
2021/09/02 12:20:35;;;;;;;8.10;4.20;;;22.80;99.90;;;;;;5055699;28;20076;-77
2021/09/02 12:23:24;;;;;;;8.95;4.78;;;22.90;99.90;;;;;;5057073;28;20024;-76
2021/09/02 12:26:03;;;;;;;7.97;4.22;;;23.00;99.90;;;;;;5057914;28;20024;-76
2021/09/02 12:28:39;;;;;;;6.32;3.70;;;23.20;99.90;;;;;;5058917;28;20639;-77
2021/09/02 12:31:25;;;;;;;5.97;3.60;;;23.10;99.90;;;;;;5060374;28;20024;-77
2021/09/02 12:34:20;;;;;;;5.05;4.03;;;23.20;99.90;;;;;;5041986;28;20108;-77
2021/09/02 12:37:04;;;;;;;12.82;4.38;;;23.20;99.90;;;;;;5058764;28;20364;-77
2021/09/02 12:39:48;;;;;;;6.95;4.00;;;23.00;99.90;;;;;;5057106;28;20032;-77
2021/09/02 12:42:22;;;;;;;7.65;4.05;;;23.20;99.90;;;;;;5074074;28;20583;-77
2021/09/02 12:45:22;;;;;;;6.05;4.28;;;23.10;99.90;;;;;;5067110;28;20040;-77
2021/09/02 12:48:01;;;;;;;6.00;4.43;;;23.10;99.90;;;;;;5057590;28;20354;-78
2021/09/02 12:50:28;;;;;;;5.57;4.13;;;23.00;99.90;;;;;;5061733;28;20031;-77